createdAt,value
2022-10-19T00:01:02.623Z,58
2022-10-19T00:04:03.628Z,66
2022-10-19T00:07:02.640Z,73
2022-10-19T00:10:02.585Z,75
2022-10-19T00:12:02.616Z,84
2022-10-19T00:14:02.611Z,82
2022-10-19T00:17:02.647Z,87
2022-10-19T00:20:02.610Z,87
2022-10-19T00:22:02.618Z,88
2022-10-19T00:24:02.618Z,89
2022-10-19T00:27:02.613Z,98
2022-10-19T00:30:02.622Z,88
2022-10-19T00:33:02.614Z,84
2022-10-19T00:36:02.599Z,74
2022-10-19T00:38:02.639Z,65
2022-10-19T00:40:02.635Z,72
2022-10-19T00:43:02.633Z,69
2022-10-19T00:45:02.656Z,60
2022-10-19T00:48:02.627Z,72
2022-10-19T00:51:02.681Z,71
2022-10-19T00:54:02.625Z,61
2022-10-19T00:56:02.655Z,72
2022-10-19T00:59:02.629Z,77
2022-10-19T01:01:02.675Z,81
2022-10-19T01:04:02.639Z,74
2022-10-19T01:06:02.644Z,76
2022-10-19T01:08:02.650Z,79
2022-10-19T01:10:02.656Z,69
2022-10-19T01:13:02.644Z,59
2022-10-19T01:15:02.623Z,58
2022-10-19T01:18:02.654Z,70
2022-10-19T01:21:02.618Z,72
2022-10-19T01:23:02.626Z,71
2022-10-19T01:25:02.662Z,75
2022-10-19T01:28:02.644Z,77
2022-10-19T01:30:02.633Z,76
2022-10-19T01:34:02.648Z,75
2022-10-19T01:37:02.638Z,71
2022-10-19T01:39:02.666Z,75
2022-10-19T01:42:02.649Z,74
2022-10-19T01:44:02.627Z,78
2022-10-19T01:46:02.653Z,77
2022-10-19T01:49:02.649Z,76
2022-10-19T01:51:02.617Z,79
2022-10-19T01:54:02.655Z,71
2022-10-19T01:57:02.672Z,74
2022-10-19T02:00:02.631Z,84
2022-10-19T02:02:02.680Z,66
2022-10-19T02:05:02.702Z,75
2022-10-19T02:08:02.642Z,73
2022-10-19T02:10:02.713Z,75
2022-10-19T02:13:02.698Z,85
2022-10-19T02:16:02.656Z,80
2022-10-19T02:19:02.617Z,75
2022-10-19T02:21:02.649Z,79
2022-10-19T02:23:02.672Z,78
2022-10-19T02:26:02.646Z,90
2022-10-19T02:29:02.672Z,82
2022-10-19T02:31:03.150Z,83
2022-10-19T02:34:02.650Z,93
2022-10-19T02:37:02.670Z,94
2022-10-19T02:40:02.654Z,92
2022-10-19T02:42:02.631Z,90
2022-10-19T02:44:02.612Z,85
2022-10-19T02:46:02.647Z,92
2022-10-19T02:48:02.644Z,86
2022-10-19T02:51:02.626Z,88
2022-10-19T02:53:02.644Z,92
2022-10-19T02:56:02.649Z,96
2022-10-19T02:59:02.622Z,92
2022-10-19T03:01:02.651Z,94
2022-10-19T03:03:02.689Z,94
2022-10-19T03:06:02.666Z,95
2022-10-19T03:09:02.630Z,93
2022-10-19T03:11:02.652Z,95
2022-10-19T03:13:02.657Z,97
2022-10-19T03:16:02.996Z,96
2022-10-19T03:19:02.635Z,98
2022-10-19T03:21:02.665Z,100
2022-10-19T03:24:02.653Z,102
2022-10-19T03:26:02.657Z,100
2022-10-19T03:28:02.663Z,103
2022-10-19T03:31:02.644Z,108
2022-10-19T03:33:02.644Z,109
2022-10-19T03:35:02.684Z,102
2022-10-19T03:38:02.676Z,108
2022-10-19T03:40:02.661Z,97
2022-10-19T03:43:03.061Z,101
2022-10-19T03:46:02.651Z,101
2022-10-19T03:48:02.672Z,96
2022-10-19T03:51:02.655Z,90
2022-10-19T03:54:02.654Z,101
2022-10-19T03:56:02.690Z,104
2022-10-19T03:59:02.663Z,106
2022-10-19T04:02:02.662Z,111
2022-10-19T04:04:02.648Z,105
2022-10-19T04:06:02.659Z,108
2022-10-19T04:09:02.655Z,111
2022-10-19T04:11:02.657Z,109
2022-10-19T04:13:02.680Z,102
2022-10-19T04:16:08.999Z,104
2022-10-19T04:19:02.688Z,92
2022-10-19T04:22:02.681Z,107
2022-10-19T04:25:02.659Z,99
2022-10-19T04:27:02.692Z,108
2022-10-19T04:29:02.726Z,102
2022-10-19T04:32:02.680Z,100
2022-10-19T04:35:02.664Z,101
2022-10-19T04:37:02.676Z,103
2022-10-19T04:39:02.683Z,100
2022-10-19T04:42:02.675Z,94
2022-10-19T04:44:02.679Z,95
2022-10-19T04:47:02.719Z,85
2022-10-19T04:50:02.698Z,97
2022-10-19T04:53:02.697Z,87
2022-10-19T04:56:02.667Z,98
2022-10-19T04:58:02.685Z,82
2022-10-19T05:01:02.755Z,86
2022-10-19T05:04:02.683Z,84
2022-10-19T05:06:02.731Z,87
2022-10-19T05:09:02.710Z,89
2022-10-19T05:12:02.693Z,89
2022-10-19T05:15:02.690Z,82
2022-10-19T05:17:02.709Z,81
2022-10-19T05:19:02.702Z,75
2022-10-19T05:22:02.675Z,71
2022-10-19T05:24:02.712Z,77
2022-10-19T05:27:02.677Z,72
2022-10-19T05:29:02.777Z,73
2022-10-19T05:31:02.672Z,77
2022-10-19T05:34:02.752Z,76
2022-10-19T05:36:02.687Z,71
2022-10-19T05:39:02.703Z,72
2022-10-19T05:42:02.681Z,69
2022-10-19T05:45:02.682Z,66
2022-10-19T05:48:02.696Z,71
2022-10-19T05:50:02.707Z,68
2022-10-19T05:53:02.681Z,74
2022-10-19T05:56:02.706Z,74
2022-10-19T05:59:02.692Z,81
2022-10-19T06:01:02.713Z,79
2022-10-19T06:04:02.680Z,77
2022-10-19T06:06:02.699Z,81
2022-10-19T06:09:02.729Z,78
2022-10-19T06:12:02.683Z,78
2022-10-19T06:14:02.696Z,75
2022-10-19T06:16:02.687Z,78
2022-10-19T06:18:02.716Z,80
2022-10-19T06:21:02.699Z,86
2022-10-19T06:23:02.702Z,83
2022-10-19T06:26:02.766Z,85
2022-10-19T06:29:02.725Z,89
2022-10-19T06:31:04.859Z,84
2022-10-19T06:34:02.767Z,87
2022-10-19T06:37:02.686Z,93
2022-10-19T06:39:02.708Z,89
2022-10-19T06:42:02.681Z,94
2022-10-19T06:44:02.713Z,94
2022-10-19T06:47:02.692Z,99
2022-10-19T06:49:02.720Z,111
2022-10-19T06:51:02.690Z,99
2022-10-19T06:54:02.735Z,113
2022-10-19T06:57:02.713Z,124
2022-10-19T07:00:02.738Z,114
2022-10-19T07:03:02.705Z,90
2022-10-19T07:05:04.554Z,119
2022-10-19T07:08:02.768Z,115
2022-10-19T07:10:02.726Z,105
2022-10-19T07:12:02.710Z,108
2022-10-19T07:15:02.711Z,110
2022-10-19T07:17:02.733Z,111
2022-10-19T07:19:02.731Z,104
2022-10-19T07:21:02.738Z,109
2022-10-19T07:24:02.711Z,112
2022-10-19T07:26:02.714Z,114
2022-10-19T07:28:02.725Z,112
2022-10-19T07:31:02.763Z,116
2022-10-19T07:34:02.704Z,115
2022-10-19T07:36:02.779Z,116
2022-10-19T07:39:02.738Z,117
2022-10-19T07:41:02.737Z,118
2022-10-19T07:43:02.713Z,114
2022-10-19T07:46:02.719Z,116
2022-10-19T07:48:02.711Z,112
2022-10-19T07:51:02.733Z,101
2022-10-19T07:54:02.695Z,102
2022-10-19T07:56:02.712Z,103
2022-10-19T07:58:02.728Z,95
2022-10-19T08:01:02.718Z,99
2022-10-19T08:05:05.167Z,100
2022-10-19T08:08:02.707Z,101
2022-10-19T08:10:02.736Z,96
2022-10-19T08:13:02.723Z,104
2022-10-19T08:16:02.690Z,95
2022-10-19T08:18:02.709Z,97
2022-10-19T08:20:02.720Z,94
2022-10-19T08:22:02.738Z,94
2022-10-19T08:25:02.729Z,94
2022-10-19T08:28:02.726Z,92
2022-10-19T08:30:02.738Z,84
2022-10-19T08:32:02.726Z,93
2022-10-19T08:35:05.063Z,103
2022-10-19T08:38:03.008Z,113
2022-10-19T08:41:02.718Z,113
2022-10-19T08:43:02.746Z,102
2022-10-19T08:46:02.714Z,95
2022-10-19T08:48:02.716Z,95
2022-10-19T08:50:02.746Z,102
2022-10-19T08:52:02.740Z,100
2022-10-19T08:55:02.709Z,98
2022-10-19T08:57:02.709Z,103
2022-10-19T08:59:02.758Z,97
2022-10-19T09:02:02.745Z,95
2022-10-19T09:05:02.736Z,101
2022-10-19T09:07:02.716Z,105
2022-10-19T09:10:02.734Z,106
2022-10-19T09:13:02.730Z,109
2022-10-19T09:15:03.810Z,110
2022-10-19T09:17:02.721Z,108
2022-10-19T09:20:02.751Z,90
2022-10-19T09:22:02.772Z,121
2022-10-19T09:24:02.815Z,125
2022-10-19T09:27:02.715Z,127
2022-10-19T09:29:02.737Z,119
2022-10-19T09:31:02.724Z,130
2022-10-19T09:34:02.756Z,137
2022-10-19T09:36:02.740Z,141
2022-10-19T09:39:02.742Z,146
2022-10-19T09:41:02.744Z,140
2022-10-19T09:44:02.764Z,154
2022-10-19T09:47:02.717Z,153
2022-10-19T09:50:02.732Z,158
2022-10-19T09:53:02.739Z,170
2022-10-19T09:55:02.801Z,173
2022-10-19T09:58:02.758Z,160
2022-10-19T10:01:02.794Z,170
2022-10-19T10:04:02.763Z,171
2022-10-19T10:07:02.766Z,156
2022-10-19T10:09:02.846Z,158
2022-10-19T10:12:02.744Z,186
2022-10-19T10:14:04.002Z,195
2022-10-19T10:17:02.761Z,183
2022-10-19T10:20:02.759Z,210
2022-10-19T10:23:02.764Z,198
2022-10-19T10:25:02.762Z,196
2022-10-19T10:28:02.762Z,195
2022-10-19T10:30:02.752Z,187
2022-10-19T10:33:08.017Z,197
2022-10-19T10:36:02.756Z,196
2022-10-19T10:38:02.773Z,183
2022-10-19T10:40:04.664Z,190
2022-10-19T10:43:02.757Z,200
2022-10-19T10:45:02.767Z,191
2022-10-19T10:48:02.807Z,193
2022-10-19T10:50:02.769Z,174
2022-10-19T10:53:02.768Z,156
2022-10-19T10:56:02.765Z,141
2022-10-19T10:58:02.795Z,125
2022-10-19T11:01:05.292Z,83
2022-10-19T11:04:02.773Z,60
2022-10-19T11:07:02.855Z,78
2022-10-19T11:10:02.794Z,47
2022-10-19T11:13:02.747Z,45
2022-10-19T11:15:02.789Z,42
2022-10-19T11:17:02.833Z,46
2022-10-19T11:20:02.787Z,43
2022-10-19T11:23:02.820Z,50
2022-10-19T11:26:02.782Z,54
2022-10-19T11:28:02.829Z,102
2022-10-19T11:31:02.749Z,101
2022-10-19T11:33:02.787Z,90
2022-10-19T11:36:02.772Z,81
2022-10-19T11:39:02.746Z,69
2022-10-19T11:41:17.657Z,53
2022-10-19T11:44:02.773Z,48
2022-10-19T11:46:02.799Z,44
2022-10-19T11:49:02.778Z,44
2022-10-19T11:52:02.763Z,38
2022-10-19T11:55:02.778Z,32
2022-10-19T11:57:04.928Z,30
2022-10-19T12:00:08.441Z,30
2022-10-19T12:02:02.825Z,27
2022-10-19T12:05:02.769Z,24
2022-10-19T12:08:02.830Z,24
2022-10-19T12:11:02.814Z,22
2022-10-19T12:13:02.808Z,22
2022-10-19T12:15:02.821Z,22
2022-10-19T12:18:02.780Z,22
2022-10-19T12:21:02.779Z,24
2022-10-19T12:24:02.776Z,20
2022-10-19T12:27:02.928Z,25
2022-10-19T12:30:02.779Z,20
2022-10-19T12:33:02.753Z,21
2022-10-19T12:35:02.772Z,20
2022-10-19T12:38:02.771Z,18
2022-10-19T12:40:02.768Z,22
2022-10-19T12:42:02.805Z,27
2022-10-19T12:45:02.777Z,24
2022-10-19T12:47:09.442Z,21
2022-10-19T12:50:02.761Z,23
2022-10-19T12:53:02.774Z,27
2022-10-19T12:55:02.758Z,26
2022-10-19T12:57:02.775Z,26
2022-10-19T12:59:02.815Z,22
2022-10-19T13:02:02.804Z,27
2022-10-19T13:05:02.781Z,21
2022-10-19T13:07:02.818Z,21
2022-10-19T13:10:02.791Z,26
2022-10-19T13:13:02.848Z,20
2022-10-19T13:16:02.786Z,24
2022-10-19T13:18:02.810Z,20
2022-10-19T13:21:03.573Z,21
2022-10-19T13:23:02.813Z,22
2022-10-19T13:26:02.777Z,19
2022-10-19T13:29:02.800Z,19
2022-10-19T13:31:05.891Z,16
2022-10-19T13:33:02.852Z,23
2022-10-19T13:36:02.800Z,23
2022-10-19T13:39:02.826Z,19
2022-10-19T13:42:02.799Z,23
2022-10-19T13:45:02.805Z,14
2022-10-19T13:48:02.825Z,15
2022-10-19T13:50:02.884Z,13
2022-10-19T13:53:02.802Z,17
2022-10-19T13:55:02.817Z,13
2022-10-19T13:57:02.835Z,14
2022-10-19T14:00:02.845Z,12
2022-10-19T14:03:03.602Z,12
2022-10-19T14:06:02.809Z,16
2022-10-19T14:08:02.858Z,28
2022-10-19T14:11:02.808Z,15
2022-10-19T14:14:02.801Z,23
2022-10-19T14:16:02.817Z,16
2022-10-19T14:18:05.093Z,14
2022-10-19T14:20:02.847Z,18
2022-10-19T14:23:02.852Z,17
2022-10-19T14:26:02.813Z,18
2022-10-19T14:29:02.842Z,16
2022-10-19T14:31:02.783Z,14
2022-10-19T14:34:02.838Z,15
2022-10-19T14:37:02.805Z,17
2022-10-19T14:40:02.918Z,13
2022-10-19T14:43:02.791Z,12
2022-10-19T14:45:02.821Z,15
2022-10-19T14:48:02.808Z,12
2022-10-19T14:50:02.882Z,16
2022-10-19T14:52:02.818Z,17
2022-10-19T14:55:02.827Z,12
2022-10-19T14:58:02.815Z,12
2022-10-19T15:00:02.894Z,12
2022-10-19T15:03:02.860Z,13
2022-10-19T15:06:02.830Z,16
2022-10-19T15:09:02.829Z,15
2022-10-19T15:11:02.819Z,13
2022-10-19T15:14:02.813Z,15
2022-10-19T15:16:02.837Z,12
2022-10-19T15:18:02.894Z,15
2022-10-19T15:20:04.576Z,12
2022-10-19T15:22:03.255Z,13
2022-10-19T15:25:02.835Z,15
2022-10-19T15:28:02.833Z,26
2022-10-19T15:30:02.909Z,29
2022-10-19T15:33:02.809Z,35
2022-10-19T15:35:02.820Z,42
2022-10-19T15:38:02.810Z,47
2022-10-19T15:40:02.839Z,46
2022-10-19T15:43:02.817Z,53
2022-10-19T15:45:02.826Z,53
2022-10-19T15:48:02.849Z,55
2022-10-19T15:51:02.832Z,54
2022-10-19T15:54:02.808Z,61
2022-10-19T15:59:02.822Z,53
2022-10-19T16:02:02.850Z,53
2022-10-19T16:04:02.835Z,56
2022-10-19T16:07:02.842Z,58
2022-10-19T16:10:02.813Z,59
2022-10-19T16:12:02.851Z,57
2022-10-19T16:15:03.535Z,53
2022-10-19T16:18:02.831Z,53
2022-10-19T16:20:02.831Z,45
2022-10-19T16:23:02.874Z,48
2022-10-19T16:26:02.910Z,46
2022-10-19T16:29:02.880Z,45
2022-10-19T16:31:02.857Z,42
2022-10-19T16:34:02.840Z,38
2022-10-19T16:36:02.846Z,39
2022-10-19T16:39:02.874Z,33
2022-10-19T16:42:02.878Z,26
2022-10-19T16:45:02.837Z,28
2022-10-19T16:48:03.160Z,25
2022-10-19T16:51:02.840Z,30
2022-10-19T16:53:02.866Z,32
2022-10-19T16:55:02.859Z,28
2022-10-19T16:58:02.863Z,25
2022-10-19T17:00:02.865Z,29
2022-10-19T17:03:02.877Z,26
2022-10-19T17:06:02.842Z,25
2022-10-19T17:09:30.131Z,28
2022-10-19T17:12:02.857Z,28
2022-10-19T17:14:02.882Z,29
2022-10-19T17:17:02.847Z,31
2022-10-19T17:19:02.896Z,29
2022-10-19T17:22:02.882Z,35
2022-10-19T17:25:02.866Z,34
2022-10-19T17:28:02.832Z,32
2022-10-19T17:30:02.888Z,36
2022-10-19T17:32:02.857Z,34
2022-10-19T17:35:02.880Z,40
2022-10-19T17:38:02.816Z,35
2022-10-19T17:40:02.872Z,34
2022-10-19T17:43:02.838Z,39
2022-10-19T17:46:02.855Z,38
2022-10-19T17:49:02.874Z,39
2022-10-19T17:51:02.846Z,38
2022-10-19T17:54:02.845Z,45
2022-10-19T17:56:02.846Z,42
2022-10-19T17:59:02.891Z,42
2022-10-19T18:02:02.897Z,43
2022-10-19T18:05:02.849Z,42
2022-10-19T18:07:02.900Z,38
2022-10-19T18:10:02.842Z,41
2022-10-19T18:13:02.857Z,42
2022-10-19T18:15:02.917Z,40
2022-10-19T18:18:02.871Z,41
2022-10-19T18:21:02.848Z,38
2022-10-19T18:23:02.857Z,47
2022-10-19T18:25:02.862Z,41
2022-10-19T18:27:02.880Z,42
2022-10-19T18:30:02.889Z,44
2022-10-19T18:34:02.864Z,42
2022-10-19T18:36:02.881Z,39
2022-10-19T18:39:02.978Z,40
2022-10-19T18:42:02.874Z,40
2022-10-19T18:44:02.958Z,38
2022-10-19T18:47:02.882Z,42
2022-10-19T18:50:02.928Z,39
2022-10-19T18:53:02.890Z,43
2022-10-19T18:56:02.867Z,35
2022-10-19T18:58:02.927Z,38
2022-10-19T19:00:03.051Z,39
2022-10-19T19:03:02.897Z,41
2022-10-19T19:06:02.862Z,42
2022-10-19T19:08:02.890Z,42
2022-10-19T19:11:18.402Z,47
2022-10-19T19:14:02.885Z,45
2022-10-19T19:16:02.873Z,46
2022-10-19T19:19:02.893Z,46
2022-10-19T19:21:02.878Z,40
2022-10-19T19:23:02.930Z,42
2022-10-19T19:26:02.892Z,43
2022-10-19T19:28:03.015Z,48
2022-10-19T19:31:02.891Z,45
2022-10-19T19:34:02.919Z,42
2022-10-19T19:37:04.163Z,41
2022-10-19T19:40:02.901Z,40
2022-10-19T19:43:02.882Z,47
2022-10-19T19:46:04.573Z,47
2022-10-19T19:48:02.882Z,47
2022-10-19T19:51:02.899Z,49
2022-10-19T19:54:02.911Z,48
2022-10-19T19:57:02.853Z,46
2022-10-19T19:59:02.894Z,42
2022-10-19T20:01:02.879Z,45
2022-10-19T20:06:02.913Z,56
2022-10-19T20:08:02.924Z,52
2022-10-19T20:10:02.951Z,49
2022-10-19T20:15:02.900Z,49
2022-10-19T20:17:02.901Z,49
2022-10-19T20:19:02.945Z,50
2022-10-19T20:22:02.905Z,57
2022-10-19T20:24:02.923Z,54
2022-10-19T20:27:02.887Z,57
2022-10-19T20:29:02.907Z,50
2022-10-19T20:32:02.878Z,54
2022-10-19T20:34:02.912Z,59
2022-10-19T20:36:02.928Z,58
2022-10-19T20:39:02.901Z,55
2022-10-19T20:41:04.190Z,64
2022-10-19T20:44:02.919Z,61
2022-10-19T20:46:02.946Z,53
2022-10-19T20:49:02.914Z,61
2022-10-19T20:51:02.920Z,58
2022-10-19T20:54:03.030Z,58
2022-10-19T20:57:02.898Z,55
2022-10-19T21:02:02.959Z,54
2022-10-19T21:05:02.904Z,55
2022-10-19T21:07:02.910Z,63
2022-10-19T21:10:02.923Z,62
2022-10-19T21:12:03.034Z,55
2022-10-19T21:15:02.906Z,60
2022-10-19T21:18:02.922Z,59
2022-10-19T21:20:02.913Z,61
2022-10-19T21:23:02.906Z,60
2022-10-19T21:26:02.928Z,64
2022-10-19T21:28:04.168Z,58
2022-10-19T21:31:02.945Z,59
2022-10-19T21:33:02.932Z,60
2022-10-19T21:35:02.952Z,59
2022-10-19T21:38:02.885Z,60
2022-10-19T21:41:02.916Z,60
2022-10-19T21:43:02.913Z,62
2022-10-19T21:46:02.903Z,60
2022-10-19T21:48:02.906Z,58
2022-10-19T21:50:02.913Z,64
2022-10-19T21:53:02.907Z,61
2022-10-19T21:55:02.950Z,62
2022-10-19T21:58:02.921Z,71
2022-10-19T22:00:02.970Z,59
2022-10-19T22:03:02.939Z,69
2022-10-19T22:06:02.921Z,57
2022-10-19T22:09:02.952Z,65
2022-10-19T22:11:02.916Z,67
2022-10-19T22:14:02.933Z,62
2022-10-19T22:17:02.918Z,67
2022-10-19T22:19:02.956Z,61
2022-10-19T22:22:02.930Z,69
2022-10-19T22:25:02.948Z,65
2022-10-19T22:28:03.015Z,69
2022-10-19T22:31:02.909Z,66
2022-10-19T22:34:02.928Z,61
2022-10-19T22:39:03.229Z,66
2022-10-19T22:42:02.972Z,66
2022-10-19T22:44:02.951Z,67
2022-10-19T22:47:02.942Z,66
2022-10-19T22:50:02.941Z,64
2022-10-19T22:52:02.938Z,65
2022-10-19T22:54:02.950Z,63
2022-10-19T22:57:02.945Z,67
2022-10-19T22:59:02.955Z,61
2022-10-19T23:02:03.069Z,59
2022-10-19T23:05:02.928Z,65
2022-10-19T23:08:02.945Z,68
2022-10-19T23:11:02.963Z,65
2022-10-19T23:14:02.963Z,67
2022-10-19T23:17:02.929Z,62
2022-10-19T23:19:02.998Z,68
2022-10-19T23:22:02.910Z,66
2022-10-19T23:25:02.989Z,66
2022-10-19T23:28:02.931Z,65
2022-10-19T23:30:02.975Z,76
2022-10-19T23:33:03.079Z,68
2022-10-19T23:36:02.938Z,68
2022-10-19T23:38:02.961Z,69
2022-10-19T23:41:02.926Z,60
2022-10-19T23:44:02.927Z,59
2022-10-19T23:46:02.960Z,63
2022-10-19T23:49:02.963Z,60
2022-10-19T23:52:02.956Z,69
2022-10-19T23:54:02.985Z,61
2022-10-19T23:57:02.926Z,63
2022-10-19T23:59:02.949Z,62
